sensor_id;sensor_type;location;lat;lon;timestamp;temperature;humidity
871;DHT22;422;51.280;7.236;2023-10-31T00:00:19;11.40;99.90
871;DHT22;422;51.280;7.236;2023-10-31T00:02:46;11.40;99.90
871;DHT22;422;51.280;7.236;2023-10-31T00:05:14;11.20;99.90
871;DHT22;422;51.280;7.236;2023-10-31T00:07:41;11.20;99.90
871;DHT22;422;51.280;7.236;2023-10-31T00:10:09;11.10;99.90
871;DHT22;422;51.280;7.236;2023-10-31T00:12:37;11.10;99.90
871;DHT22;422;51.280;7.236;2023-10-31T00:15:05;11.00;99.90
871;DHT22;422;51.280;7.236;2023-10-31T00:17:33;10.90;99.90
871;DHT22;422;51.280;7.236;2023-10-31T00:20:00;10.90;99.90
871;DHT22;422;51.280;7.236;2023-10-31T00:22:27;10.80;99.90
871;DHT22;422;51.280;7.236;2023-10-31T00:24:54;10.80;99.90
871;DHT22;422;51.280;7.236;2023-10-31T00:27:23;10.80;99.90
871;DHT22;422;51.280;7.236;2023-10-31T00:29:50;10.80;99.90
871;DHT22;422;51.280;7.236;2023-10-31T00:32:18;10.80;99.90
871;DHT22;422;51.280;7.236;2023-10-31T00:34:45;10.80;99.90
871;DHT22;422;51.280;7.236;2023-10-31T00:37:12;10.70;99.90
871;DHT22;422;51.280;7.236;2023-10-31T00:39:39;10.70;99.90
871;DHT22;422;51.280;7.236;2023-10-31T00:42:07;10.70;99.90
871;DHT22;422;51.280;7.236;2023-10-31T00:44:35;10.70;99.90
871;DHT22;422;51.280;7.236;2023-10-31T00:47:02;10.70;99.90
871;DHT22;422;51.280;7.236;2023-10-31T00:49:31;10.60;99.90
871;DHT22;422;51.280;7.236;2023-10-31T00:51:58;10.60;99.90
871;DHT22;422;51.280;7.236;2023-10-31T00:54:25;10.60;99.90
871;DHT22;422;51.280;7.236;2023-10-31T00:56:52;10.60;99.90
871;DHT22;422;51.280;7.236;2023-10-31T00:59:19;10.60;99.90
871;DHT22;422;51.280;7.236;2023-10-31T01:01:48;10.60;99.90
871;DHT22;422;51.280;7.236;2023-10-31T01:04:15;10.60;99.90
871;DHT22;422;51.280;7.236;2023-10-31T01:06:42;10.60;99.90
871;DHT22;422;51.280;7.236;2023-10-31T01:09:10;10.50;99.90
871;DHT22;422;51.280;7.236;2023-10-31T01:11:38;10.50;99.90
871;DHT22;422;51.280;7.236;2023-10-31T01:14:06;10.50;99.90
871;DHT22;422;51.280;7.236;2023-10-31T01:16:33;10.40;99.90
871;DHT22;422;51.280;7.236;2023-10-31T01:19:01;10.30;99.90
871;DHT22;422;51.280;7.236;2023-10-31T01:21:29;10.30;99.90
871;DHT22;422;51.280;7.236;2023-10-31T01:23:57;10.30;99.90
871;DHT22;422;51.280;7.236;2023-10-31T01:26:24;10.30;99.90
871;DHT22;422;51.280;7.236;2023-10-31T01:28:52;10.30;99.90
871;DHT22;422;51.280;7.236;2023-10-31T01:31:19;10.40;99.90
871;DHT22;422;51.280;7.236;2023-10-31T01:33:46;10.30;99.90
871;DHT22;422;51.280;7.236;2023-10-31T01:36:15;10.30;99.90
871;DHT22;422;51.280;7.236;2023-10-31T01:38:43;10.20;99.90
871;DHT22;422;51.280;7.236;2023-10-31T01:41:12;10.30;99.90
871;DHT22;422;51.280;7.236;2023-10-31T01:43:39;10.20;99.90
871;DHT22;422;51.280;7.236;2023-10-31T01:46:06;10.30;99.90
871;DHT22;422;51.280;7.236;2023-10-31T01:48:34;10.20;99.90
871;DHT22;422;51.280;7.236;2023-10-31T01:51:03;10.20;99.90
871;DHT22;422;51.280;7.236;2023-10-31T01:53:34;10.20;99.90
871;DHT22;422;51.280;7.236;2023-10-31T01:56:02;10.20;99.90
871;DHT22;422;51.280;7.236;2023-10-31T01:58:32;10.10;99.90
871;DHT22;422;51.280;7.236;2023-10-31T02:01:01;10.00;99.90
871;DHT22;422;51.280;7.236;2023-10-31T02:03:28;10.00;99.90
871;DHT22;422;51.280;7.236;2023-10-31T02:05:56;10.10;99.90
871;DHT22;422;51.280;7.236;2023-10-31T02:08:24;10.10;99.90
871;DHT22;422;51.280;7.236;2023-10-31T02:10:53;10.10;99.90
871;DHT22;422;51.280;7.236;2023-10-31T02:13:20;10.00;99.90
871;DHT22;422;51.280;7.236;2023-10-31T02:15:47;10.00;99.90
871;DHT22;422;51.280;7.236;2023-10-31T02:18:14;10.00;99.90
871;DHT22;422;51.280;7.236;2023-10-31T02:20:42;10.00;99.90
871;DHT22;422;51.280;7.236;2023-10-31T02:23:11;10.00;99.90
871;DHT22;422;51.280;7.236;2023-10-31T02:25:38;9.90;99.90
871;DHT22;422;51.280;7.236;2023-10-31T02:28:05;9.90;99.90
871;DHT22;422;51.280;7.236;2023-10-31T02:30:32;9.90;99.90
871;DHT22;422;51.280;7.236;2023-10-31T02:33:00;10.00;99.90
871;DHT22;422;51.280;7.236;2023-10-31T02:35:28;9.90;99.90
871;DHT22;422;51.280;7.236;2023-10-31T02:37:55;9.90;99.90
871;DHT22;422;51.280;7.236;2023-10-31T02:40:23;10.00;99.90
871;DHT22;422;51.280;7.236;2023-10-31T02:42:51;10.00;99.90
871;DHT22;422;51.280;7.236;2023-10-31T02:45:18;10.00;99.90
871;DHT22;422;51.280;7.236;2023-10-31T02:47:45;10.00;99.90
871;DHT22;422;51.280;7.236;2023-10-31T02:50:12;10.00;99.90
871;DHT22;422;51.280;7.236;2023-10-31T02:52:39;10.00;99.90
871;DHT22;422;51.280;7.236;2023-10-31T02:55:07;10.00;99.90
871;DHT22;422;51.280;7.236;2023-10-31T02:57:35;10.00;99.90
871;DHT22;422;51.280;7.236;2023-10-31T03:00:03;10.00;99.90
871;DHT22;422;51.280;7.236;2023-10-31T03:02:31;10.00;99.90
871;DHT22;422;51.280;7.236;2023-10-31T03:04:58;10.00;99.90
871;DHT22;422;51.280;7.236;2023-10-31T03:07:25;10.00;99.90
871;DHT22;422;51.280;7.236;2023-10-31T03:09:52;10.00;99.90
871;DHT22;422;51.280;7.236;2023-10-31T03:12:20;10.00;99.90
871;DHT22;422;51.280;7.236;2023-10-31T03:14:48;10.00;99.90
871;DHT22;422;51.280;7.236;2023-10-31T03:17:15;10.10;99.90
871;DHT22;422;51.280;7.236;2023-10-31T03:19:42;10.00;99.90
871;DHT22;422;51.280;7.236;2023-10-31T03:22:10;10.00;99.90
871;DHT22;422;51.280;7.236;2023-10-31T03:24:37;10.00;99.90
871;DHT22;422;51.280;7.236;2023-10-31T03:27:04;10.00;99.90
871;DHT22;422;51.280;7.236;2023-10-31T03:29:31;10.00;99.90
871;DHT22;422;51.280;7.236;2023-10-31T03:31:59;9.90;99.90
871;DHT22;422;51.280;7.236;2023-10-31T03:34:27;9.90;99.90
871;DHT22;422;51.280;7.236;2023-10-31T03:36:54;9.90;99.90
871;DHT22;422;51.280;7.236;2023-10-31T03:39:21;9.90;99.90
871;DHT22;422;51.280;7.236;2023-10-31T03:41:48;9.90;99.90
871;DHT22;422;51.280;7.236;2023-10-31T03:44:15;9.90;99.90
871;DHT22;422;51.280;7.236;2023-10-31T03:46:42;9.90;99.90
871;DHT22;422;51.280;7.236;2023-10-31T03:49:11;10.00;99.90
871;DHT22;422;51.280;7.236;2023-10-31T03:51:38;9.90;99.90
871;DHT22;422;51.280;7.236;2023-10-31T03:54:05;9.90;99.90
871;DHT22;422;51.280;7.236;2023-10-31T03:56:38;9.90;99.90
871;DHT22;422;51.280;7.236;2023-10-31T03:59:06;9.90;99.90
871;DHT22;422;51.280;7.236;2023-10-31T04:01:33;9.90;99.90
871;DHT22;422;51.280;7.236;2023-10-31T04:04:00;9.90;99.90
871;DHT22;422;51.280;7.236;2023-10-31T04:06:29;9.90;99.90
871;DHT22;422;51.280;7.236;2023-10-31T04:08:56;9.90;99.90
871;DHT22;422;51.280;7.236;2023-10-31T04:11:23;9.90;99.90
871;DHT22;422;51.280;7.236;2023-10-31T04:13:50;9.90;99.90
871;DHT22;422;51.280;7.236;2023-10-31T04:16:17;9.90;99.90
871;DHT22;422;51.280;7.236;2023-10-31T04:18:45;9.80;99.90
871;DHT22;422;51.280;7.236;2023-10-31T04:21:12;9.90;99.90
871;DHT22;422;51.280;7.236;2023-10-31T04:23:40;9.90;99.90
871;DHT22;422;51.280;7.236;2023-10-31T04:26:07;9.90;99.90
871;DHT22;422;51.280;7.236;2023-10-31T04:28:34;9.90;99.90
871;DHT22;422;51.280;7.236;2023-10-31T04:31:02;9.90;99.90
871;DHT22;422;51.280;7.236;2023-10-31T04:33:29;9.80;99.90
871;DHT22;422;51.280;7.236;2023-10-31T04:35:56;9.80;99.90
871;DHT22;422;51.280;7.236;2023-10-31T04:38:23;9.80;99.90
871;DHT22;422;51.280;7.236;2023-10-31T04:40:52;9.80;99.90
871;DHT22;422;51.280;7.236;2023-10-31T04:43:19;9.90;99.90
871;DHT22;422;51.280;7.236;2023-10-31T04:45:46;9.80;99.90
871;DHT22;422;51.280;7.236;2023-10-31T04:48:13;9.80;99.90
871;DHT22;422;51.280;7.236;2023-10-31T04:50:40;9.80;99.90
871;DHT22;422;51.280;7.236;2023-10-31T04:53:07;9.80;99.90
871;DHT22;422;51.280;7.236;2023-10-31T04:55:35;9.80;99.90
871;DHT22;422;51.280;7.236;2023-10-31T04:58:03;9.80;99.90
871;DHT22;422;51.280;7.236;2023-10-31T05:00:30;9.80;99.90
871;DHT22;422;51.280;7.236;2023-10-31T05:02:58;9.80;99.90
871;DHT22;422;51.280;7.236;2023-10-31T05:05:26;9.80;99.90
871;DHT22;422;51.280;7.236;2023-10-31T05:07:54;9.90;99.90
871;DHT22;422;51.280;7.236;2023-10-31T05:10:21;9.80;99.90
871;DHT22;422;51.280;7.236;2023-10-31T05:12:48;9.80;99.90
871;DHT22;422;51.280;7.236;2023-10-31T05:15:17;9.80;99.90
871;DHT22;422;51.280;7.236;2023-10-31T05:17:44;9.80;99.90
871;DHT22;422;51.280;7.236;2023-10-31T05:20:12;9.80;99.90
871;DHT22;422;51.280;7.236;2023-10-31T05:22:41;9.80;99.90
871;DHT22;422;51.280;7.236;2023-10-31T05:25:08;9.80;99.90
871;DHT22;422;51.280;7.236;2023-10-31T05:27:35;9.80;99.90
871;DHT22;422;51.280;7.236;2023-10-31T05:30:03;9.80;99.90
871;DHT22;422;51.280;7.236;2023-10-31T05:32:31;9.80;99.90
871;DHT22;422;51.280;7.236;2023-10-31T05:34:59;9.90;99.90
871;DHT22;422;51.280;7.236;2023-10-31T05:37:26;9.80;99.90
871;DHT22;422;51.280;7.236;2023-10-31T05:39:53;9.80;99.90
871;DHT22;422;51.280;7.236;2023-10-31T05:42:20;9.80;99.90
871;DHT22;422;51.280;7.236;2023-10-31T05:44:48;9.80;99.90
871;DHT22;422;51.280;7.236;2023-10-31T05:47:15;9.80;99.90
871;DHT22;422;51.280;7.236;2023-10-31T05:49:44;9.80;99.90
871;DHT22;422;51.280;7.236;2023-10-31T05:52:11;9.70;99.90
871;DHT22;422;51.280;7.236;2023-10-31T05:54:38;9.80;99.90
871;DHT22;422;51.280;7.236;2023-10-31T05:57:05;9.80;99.90
871;DHT22;422;51.280;7.236;2023-10-31T05:59:33;9.80;99.90
871;DHT22;422;51.280;7.236;2023-10-31T06:02:00;9.80;99.90
871;DHT22;422;51.280;7.236;2023-10-31T06:04:27;9.70;99.90
871;DHT22;422;51.280;7.236;2023-10-31T06:06:56;9.70;99.90
871;DHT22;422;51.280;7.236;2023-10-31T06:09:23;9.70;99.90
871;DHT22;422;51.280;7.236;2023-10-31T06:11:50;9.70;99.90
871;DHT22;422;51.280;7.236;2023-10-31T06:14:17;9.70;99.90
871;DHT22;422;51.280;7.236;2023-10-31T06:16:45;9.70;99.90
871;DHT22;422;51.280;7.236;2023-10-31T06:19:12;9.70;99.90
871;DHT22;422;51.280;7.236;2023-10-31T06:21:39;9.70;99.90
871;DHT22;422;51.280;7.236;2023-10-31T06:24:09;9.70;99.90
871;DHT22;422;51.280;7.236;2023-10-31T06:26:36;9.70;99.90
871;DHT22;422;51.280;7.236;2023-10-31T06:29:03;9.70;99.90
871;DHT22;422;51.280;7.236;2023-10-31T06:31:30;9.70;99.90
871;DHT22;422;51.280;7.236;2023-10-31T06:33:57;9.70;99.90
871;DHT22;422;51.280;7.236;2023-10-31T06:36:24;9.70;99.90
871;DHT22;422;51.280;7.236;2023-10-31T06:38:51;9.80;99.90
871;DHT22;422;51.280;7.236;2023-10-31T06:41:20;9.80;99.90
871;DHT22;422;51.280;7.236;2023-10-31T06:43:47;9.80;99.90
871;DHT22;422;51.280;7.236;2023-10-31T06:46:13;9.90;99.90
871;DHT22;422;51.280;7.236;2023-10-31T06:48:41;9.80;99.90
871;DHT22;422;51.280;7.236;2023-10-31T06:51:09;9.80;99.90
871;DHT22;422;51.280;7.236;2023-10-31T06:53:36;9.80;99.90
871;DHT22;422;51.280;7.236;2023-10-31T06:56:03;9.80;99.90
871;DHT22;422;51.280;7.236;2023-10-31T06:58:32;9.80;99.90
871;DHT22;422;51.280;7.236;2023-10-31T07:00:59;9.80;99.90
871;DHT22;422;51.280;7.236;2023-10-31T07:03:26;9.80;99.90
871;DHT22;422;51.280;7.236;2023-10-31T07:05:54;9.80;99.90
871;DHT22;422;51.280;7.236;2023-10-31T07:08:22;9.80;99.90
871;DHT22;422;51.280;7.236;2023-10-31T07:10:49;9.80;99.90
871;DHT22;422;51.280;7.236;2023-10-31T07:13:16;9.80;99.90
871;DHT22;422;51.280;7.236;2023-10-31T07:15:45;9.80;99.90
871;DHT22;422;51.280;7.236;2023-10-31T07:18:12;9.80;99.90
871;DHT22;422;51.280;7.236;2023-10-31T07:20:39;9.80;99.90
871;DHT22;422;51.280;7.236;2023-10-31T07:23:06;9.80;99.90
871;DHT22;422;51.280;7.236;2023-10-31T07:25:34;9.80;99.90
871;DHT22;422;51.280;7.236;2023-10-31T07:28:01;9.90;99.90
871;DHT22;422;51.280;7.236;2023-10-31T07:30:28;9.90;99.90
871;DHT22;422;51.280;7.236;2023-10-31T07:32:57;9.90;99.90
871;DHT22;422;51.280;7.236;2023-10-31T07:35:24;9.80;99.90
871;DHT22;422;51.280;7.236;2023-10-31T07:37:51;9.90;99.90
871;DHT22;422;51.280;7.236;2023-10-31T07:40:18;9.90;99.90
871;DHT22;422;51.280;7.236;2023-10-31T07:42:46;9.90;99.90
871;DHT22;422;51.280;7.236;2023-10-31T07:45:13;9.80;99.90
871;DHT22;422;51.280;7.236;2023-10-31T07:47:40;9.90;99.90
871;DHT22;422;51.280;7.236;2023-10-31T07:50:09;9.90;99.90
871;DHT22;422;51.280;7.236;2023-10-31T07:52:36;9.90;99.90
871;DHT22;422;51.280;7.236;2023-10-31T07:55:04;9.90;99.90
871;DHT22;422;51.280;7.236;2023-10-31T07:57:32;9.90;99.90
871;DHT22;422;51.280;7.236;2023-10-31T07:59:59;9.90;99.90
871;DHT22;422;51.280;7.236;2023-10-31T08:02:26;9.90;99.90
871;DHT22;422;51.280;7.236;2023-10-31T08:04:54;9.90;99.90
871;DHT22;422;51.280;7.236;2023-10-31T08:07:22;10.00;99.90
871;DHT22;422;51.280;7.236;2023-10-31T08:09:50;10.00;99.90
871;DHT22;422;51.280;7.236;2023-10-31T08:12:17;10.10;99.90
871;DHT22;422;51.280;7.236;2023-10-31T08:14:44;10.10;99.90
871;DHT22;422;51.280;7.236;2023-10-31T08:17:12;10.00;99.90
871;DHT22;422;51.280;7.236;2023-10-31T08:19:39;10.10;99.90
871;DHT22;422;51.280;7.236;2023-10-31T08:22:06;10.10;99.90
871;DHT22;422;51.280;7.236;2023-10-31T08:24:35;10.00;99.90
871;DHT22;422;51.280;7.236;2023-10-31T08:27:03;10.00;99.90
871;DHT22;422;51.280;7.236;2023-10-31T08:29:30;9.90;99.90
871;DHT22;422;51.280;7.236;2023-10-31T08:31:57;9.90;99.90
871;DHT22;422;51.280;7.236;2023-10-31T08:34:24;9.90;99.90
871;DHT22;422;51.280;7.236;2023-10-31T08:36:52;10.00;99.90
871;DHT22;422;51.280;7.236;2023-10-31T08:39:19;10.00;99.90
871;DHT22;422;51.280;7.236;2023-10-31T08:41:52;10.00;99.90
871;DHT22;422;51.280;7.236;2023-10-31T08:44:20;10.00;99.90
871;DHT22;422;51.280;7.236;2023-10-31T08:46:48;10.00;99.90
871;DHT22;422;51.280;7.236;2023-10-31T08:49:16;10.00;99.90
871;DHT22;422;51.280;7.236;2023-10-31T08:51:43;9.90;99.90
871;DHT22;422;51.280;7.236;2023-10-31T08:54:11;9.90;99.90
871;DHT22;422;51.280;7.236;2023-10-31T08:56:38;10.00;99.90
871;DHT22;422;51.280;7.236;2023-10-31T08:59:07;10.10;99.90
871;DHT22;422;51.280;7.236;2023-10-31T09:01:34;10.10;99.90
871;DHT22;422;51.280;7.236;2023-10-31T09:04:01;10.20;99.90
871;DHT22;422;51.280;7.236;2023-10-31T09:06:29;10.20;99.90
871;DHT22;422;51.280;7.236;2023-10-31T09:08:56;10.20;99.90
871;DHT22;422;51.280;7.236;2023-10-31T09:11:23;10.30;99.90
871;DHT22;422;51.280;7.236;2023-10-31T09:13:50;10.30;99.90
871;DHT22;422;51.280;7.236;2023-10-31T09:16:19;10.40;99.90
871;DHT22;422;51.280;7.236;2023-10-31T09:18:46;10.50;99.90
871;DHT22;422;51.280;7.236;2023-10-31T09:21:13;10.60;99.90
871;DHT22;422;51.280;7.236;2023-10-31T09:23:41;10.60;99.90
871;DHT22;422;51.280;7.236;2023-10-31T09:26:08;10.60;99.90
871;DHT22;422;51.280;7.236;2023-10-31T09:28:36;10.60;99.90
871;DHT22;422;51.280;7.236;2023-10-31T09:31:04;10.80;99.90
871;DHT22;422;51.280;7.236;2023-10-31T09:33:32;10.70;99.90
871;DHT22;422;51.280;7.236;2023-10-31T09:36:00;10.90;99.90
871;DHT22;422;51.280;7.236;2023-10-31T09:38:27;11.00;99.90
871;DHT22;422;51.280;7.236;2023-10-31T09:40:54;11.00;99.90
871;DHT22;422;51.280;7.236;2023-10-31T09:43:22;11.10;99.90
871;DHT22;422;51.280;7.236;2023-10-31T09:45:49;11.30;99.90
871;DHT22;422;51.280;7.236;2023-10-31T09:48:17;11.50;99.90
871;DHT22;422;51.280;7.236;2023-10-31T09:50:47;11.40;99.90
871;DHT22;422;51.280;7.236;2023-10-31T09:53:15;11.60;99.90
871;DHT22;422;51.280;7.236;2023-10-31T09:55:43;11.60;99.90
871;DHT22;422;51.280;7.236;2023-10-31T09:58:11;11.90;99.90
871;DHT22;422;51.280;7.236;2023-10-31T10:00:39;12.00;99.90
871;DHT22;422;51.280;7.236;2023-10-31T10:03:07;12.00;99.90
871;DHT22;422;51.280;7.236;2023-10-31T10:05:35;11.90;99.90
871;DHT22;422;51.280;7.236;2023-10-31T10:08:05;11.80;99.90
871;DHT22;422;51.280;7.236;2023-10-31T10:10:33;11.60;99.90
871;DHT22;422;51.280;7.236;2023-10-31T10:13:02;11.50;99.90
871;DHT22;422;51.280;7.236;2023-10-31T10:15:30;11.40;99.90
871;DHT22;422;51.280;7.236;2023-10-31T10:17:57;11.60;99.90
871;DHT22;422;51.280;7.236;2023-10-31T10:20:24;11.80;99.90
871;DHT22;422;51.280;7.236;2023-10-31T10:22:51;11.60;99.90
871;DHT22;422;51.280;7.236;2023-10-31T10:25:20;11.50;99.90
871;DHT22;422;51.280;7.236;2023-10-31T10:27:48;11.50;99.90
871;DHT22;422;51.280;7.236;2023-10-31T10:30:15;11.30;99.90
871;DHT22;422;51.280;7.236;2023-10-31T10:32:43;11.30;99.90
871;DHT22;422;51.280;7.236;2023-10-31T10:35:10;11.50;99.90
871;DHT22;422;51.280;7.236;2023-10-31T10:37:38;11.80;99.90
871;DHT22;422;51.280;7.236;2023-10-31T10:40:07;12.00;99.90
871;DHT22;422;51.280;7.236;2023-10-31T10:42:44;12.00;99.90
871;DHT22;422;51.280;7.236;2023-10-31T10:45:13;11.90;99.90
871;DHT22;422;51.280;7.236;2023-10-31T10:47:45;11.80;99.90
871;DHT22;422;51.280;7.236;2023-10-31T10:50:13;11.80;99.90
871;DHT22;422;51.280;7.236;2023-10-31T10:52:44;11.80;99.90
871;DHT22;422;51.280;7.236;2023-10-31T10:55:19;11.80;99.90
871;DHT22;422;51.280;7.236;2023-10-31T10:57:55;11.90;99.90
871;DHT22;422;51.280;7.236;2023-10-31T11:00:25;12.00;99.90
871;DHT22;422;51.280;7.236;2023-10-31T11:02:52;12.10;99.90
871;DHT22;422;51.280;7.236;2023-10-31T11:05:20;12.10;99.90
871;DHT22;422;51.280;7.236;2023-10-31T11:07:49;12.30;99.90
871;DHT22;422;51.280;7.236;2023-10-31T11:10:17;12.50;99.90
871;DHT22;422;51.280;7.236;2023-10-31T11:12:45;12.60;99.90
871;DHT22;422;51.280;7.236;2023-10-31T11:15:16;12.60;99.90
871;DHT22;422;51.280;7.236;2023-10-31T11:17:45;12.80;99.90
871;DHT22;422;51.280;7.236;2023-10-31T11:20:15;12.80;99.90
871;DHT22;422;51.280;7.236;2023-10-31T11:22:44;12.80;99.90
871;DHT22;422;51.280;7.236;2023-10-31T11:25:13;13.00;99.90
871;DHT22;422;51.280;7.236;2023-10-31T11:27:41;13.20;99.90
871;DHT22;422;51.280;7.236;2023-10-31T11:30:22;13.50;99.90
871;DHT22;422;51.280;7.236;2023-10-31T11:32:54;14.00;99.90
871;DHT22;422;51.280;7.236;2023-10-31T11:35:22;14.20;99.90
871;DHT22;422;51.280;7.236;2023-10-31T11:37:49;14.70;43.30
871;DHT22;422;51.280;7.236;2023-10-31T11:40:27;14.90;1.00
871;DHT22;422;51.280;7.236;2023-10-31T11:42:57;15.40;99.90
871;DHT22;422;51.280;7.236;2023-10-31T11:45:31;15.40;1.00
871;DHT22;422;51.280;7.236;2023-10-31T11:47:58;15.30;1.00
871;DHT22;422;51.280;7.236;2023-10-31T11:50:25;15.00;1.00
871;DHT22;422;51.280;7.236;2023-10-31T11:53:04;15.40;1.00
871;DHT22;422;51.280;7.236;2023-10-31T11:55:33;15.50;99.90
871;DHT22;422;51.280;7.236;2023-10-31T11:58:13;15.40;99.90
871;DHT22;422;51.280;7.236;2023-10-31T12:00:41;15.10;99.90
871;DHT22;422;51.280;7.236;2023-10-31T12:03:10;14.50;99.90
871;DHT22;422;51.280;7.236;2023-10-31T12:05:37;14.30;99.90
871;DHT22;422;51.280;7.236;2023-10-31T12:08:04;13.70;99.90
871;DHT22;422;51.280;7.236;2023-10-31T12:10:32;13.70;99.90
871;DHT22;422;51.280;7.236;2023-10-31T12:12:59;13.70;99.90
871;DHT22;422;51.280;7.236;2023-10-31T12:15:26;13.60;99.90
871;DHT22;422;51.280;7.236;2023-10-31T12:17:59;13.50;99.90
871;DHT22;422;51.280;7.236;2023-10-31T12:20:26;13.10;99.90
871;DHT22;422;51.280;7.236;2023-10-31T12:23:03;13.20;1.00
871;DHT22;422;51.280;7.236;2023-10-31T12:25:31;13.10;1.00
871;DHT22;422;51.280;7.236;2023-10-31T12:28:00;13.20;1.00
871;DHT22;422;51.280;7.236;2023-10-31T12:30:28;13.20;1.00
871;DHT22;422;51.280;7.236;2023-10-31T12:32:56;13.10;1.00
871;DHT22;422;51.280;7.236;2023-10-31T12:35:26;12.90;1.00
871;DHT22;422;51.280;7.236;2023-10-31T12:37:54;12.70;1.00
871;DHT22;422;51.280;7.236;2023-10-31T12:40:23;12.80;1.00
871;DHT22;422;51.280;7.236;2023-10-31T12:42:51;12.60;1.00
871;DHT22;422;51.280;7.236;2023-10-31T12:45:19;12.50;1.00
871;DHT22;422;51.280;7.236;2023-10-31T12:48:00;12.50;20.00
871;DHT22;422;51.280;7.236;2023-10-31T12:50:29;12.50;99.90
871;DHT22;422;51.280;7.236;2023-10-31T12:52:57;12.30;99.90
871;DHT22;422;51.280;7.236;2023-10-31T12:55:26;12.40;99.90
871;DHT22;422;51.280;7.236;2023-10-31T12:57:54;12.50;99.90
871;DHT22;422;51.280;7.236;2023-10-31T13:00:23;12.60;99.90
871;DHT22;422;51.280;7.236;2023-10-31T13:02:59;12.70;99.90
871;DHT22;422;51.280;7.236;2023-10-31T13:05:29;12.60;95.50
871;DHT22;422;51.280;7.236;2023-10-31T13:07:57;12.60;94.00
871;DHT22;422;51.280;7.236;2023-10-31T13:10:27;12.60;77.90
871;DHT22;422;51.280;7.236;2023-10-31T13:12:54;12.60;68.10
871;DHT22;422;51.280;7.236;2023-10-31T13:15:23;12.70;83.60
871;DHT22;422;51.280;7.236;2023-10-31T13:17:52;12.70;48.60
871;DHT22;422;51.280;7.236;2023-10-31T13:20:20;12.70;53.90
871;DHT22;422;51.280;7.236;2023-10-31T13:22:49;12.70;55.50
871;DHT22;422;51.280;7.236;2023-10-31T13:25:16;12.70;51.40
871;DHT22;422;51.280;7.236;2023-10-31T13:27:44;12.80;61.20
871;DHT22;422;51.280;7.236;2023-10-31T13:30:16;12.80;46.40
871;DHT22;422;51.280;7.236;2023-10-31T13:32:44;12.70;13.90
871;DHT22;422;51.280;7.236;2023-10-31T13:35:11;12.70;22.60
871;DHT22;422;51.280;7.236;2023-10-31T13:37:40;12.80;43.60
871;DHT22;422;51.280;7.236;2023-10-31T13:40:09;12.70;17.70
871;DHT22;422;51.280;7.236;2023-10-31T13:42:37;12.80;26.10
871;DHT22;422;51.280;7.236;2023-10-31T13:45:06;12.80;34.30
871;DHT22;422;51.280;7.236;2023-10-31T13:47:33;12.80;18.60
871;DHT22;422;51.280;7.236;2023-10-31T13:50:00;12.90;18.40
871;DHT22;422;51.280;7.236;2023-10-31T13:52:28;12.80;1.00
871;DHT22;422;51.280;7.236;2023-10-31T13:54:55;12.70;1.00
871;DHT22;422;51.280;7.236;2023-10-31T13:57:24;12.70;1.00
871;DHT22;422;51.280;7.236;2023-10-31T13:59:51;12.70;1.00
871;DHT22;422;51.280;7.236;2023-10-31T14:02:19;12.70;17.50
871;DHT22;422;51.280;7.236;2023-10-31T14:04:46;12.70;18.10
871;DHT22;422;51.280;7.236;2023-10-31T14:07:19;12.70;56.10
871;DHT22;422;51.280;7.236;2023-10-31T14:09:47;12.70;52.40
871;DHT22;422;51.280;7.236;2023-10-31T14:12:15;12.60;33.30
871;DHT22;422;51.280;7.236;2023-10-31T14:14:43;12.60;93.40
871;DHT22;422;51.280;7.236;2023-10-31T14:17:13;12.70;99.90
871;DHT22;422;51.280;7.236;2023-10-31T14:19:42;12.70;99.90
871;DHT22;422;51.280;7.236;2023-10-31T14:22:11;12.70;99.90
871;DHT22;422;51.280;7.236;2023-10-31T14:24:38;12.60;99.90
871;DHT22;422;51.280;7.236;2023-10-31T14:27:06;12.50;99.90
871;DHT22;422;51.280;7.236;2023-10-31T14:29:33;12.50;99.90
871;DHT22;422;51.280;7.236;2023-10-31T14:32:07;12.50;99.90
871;DHT22;422;51.280;7.236;2023-10-31T14:34:34;12.60;99.90
871;DHT22;422;51.280;7.236;2023-10-31T14:37:02;12.70;99.90
871;DHT22;422;51.280;7.236;2023-10-31T14:39:29;12.80;99.90
871;DHT22;422;51.280;7.236;2023-10-31T14:41:56;12.80;99.90
871;DHT22;422;51.280;7.236;2023-10-31T14:44:23;12.80;99.90
871;DHT22;422;51.280;7.236;2023-10-31T14:46:51;12.80;99.90
871;DHT22;422;51.280;7.236;2023-10-31T14:49:20;12.70;92.80
871;DHT22;422;51.280;7.236;2023-10-31T14:51:47;12.70;90.40
871;DHT22;422;51.280;7.236;2023-10-31T14:54:15;12.60;99.90
871;DHT22;422;51.280;7.236;2023-10-31T14:56:42;12.70;99.90
871;DHT22;422;51.280;7.236;2023-10-31T14:59:09;12.70;94.20
871;DHT22;422;51.280;7.236;2023-10-31T15:01:36;12.70;42.90
871;DHT22;422;51.280;7.236;2023-10-31T15:04:04;12.60;42.30
871;DHT22;422;51.280;7.236;2023-10-31T15:06:33;12.60;70.20
871;DHT22;422;51.280;7.236;2023-10-31T15:09:01;12.50;57.50
871;DHT22;422;51.280;7.236;2023-10-31T15:11:28;12.40;95.80
871;DHT22;422;51.280;7.236;2023-10-31T15:13:56;12.30;99.90
871;DHT22;422;51.280;7.236;2023-10-31T15:16:23;12.20;99.90
871;DHT22;422;51.280;7.236;2023-10-31T15:18:50;12.20;99.90
871;DHT22;422;51.280;7.236;2023-10-31T15:21:17;12.20;99.90
871;DHT22;422;51.280;7.236;2023-10-31T15:23:47;12.20;99.90
871;DHT22;422;51.280;7.236;2023-10-31T15:26:14;12.20;99.90
871;DHT22;422;51.280;7.236;2023-10-31T15:28:41;12.10;99.90
871;DHT22;422;51.280;7.236;2023-10-31T15:31:09;12.00;99.90
871;DHT22;422;51.280;7.236;2023-10-31T15:33:36;11.90;99.90
871;DHT22;422;51.280;7.236;2023-10-31T15:36:09;11.90;99.90
871;DHT22;422;51.280;7.236;2023-10-31T15:38:36;11.80;1.00
871;DHT22;422;51.280;7.236;2023-10-31T15:41:05;11.80;1.00
871;DHT22;422;51.280;7.236;2023-10-31T15:43:32;11.80;1.00
871;DHT22;422;51.280;7.236;2023-10-31T15:45:59;11.70;1.00
871;DHT22;422;51.280;7.236;2023-10-31T15:48:26;11.70;1.00
871;DHT22;422;51.280;7.236;2023-10-31T15:50:54;11.60;1.00
871;DHT22;422;51.280;7.236;2023-10-31T15:53:21;11.50;50.60
871;DHT22;422;51.280;7.236;2023-10-31T15:55:49;11.50;95.00
871;DHT22;422;51.280;7.236;2023-10-31T15:58:18;11.50;99.90
871;DHT22;422;51.280;7.236;2023-10-31T16:00:45;11.40;99.90
871;DHT22;422;51.280;7.236;2023-10-31T16:03:12;11.40;99.90
871;DHT22;422;51.280;7.236;2023-10-31T16:05:39;11.40;99.90
871;DHT22;422;51.280;7.236;2023-10-31T16:08:07;11.40;99.90
871;DHT22;422;51.280;7.236;2023-10-31T16:10:34;11.40;99.90
871;DHT22;422;51.280;7.236;2023-10-31T16:13:01;11.40;1.00
871;DHT22;422;51.280;7.236;2023-10-31T16:15:30;11.40;1.00
871;DHT22;422;51.280;7.236;2023-10-31T16:17:57;11.40;1.00
871;DHT22;422;51.280;7.236;2023-10-31T16:20:24;11.50;1.00
871;DHT22;422;51.280;7.236;2023-10-31T16:22:52;11.50;1.00
871;DHT22;422;51.280;7.236;2023-10-31T16:25:19;11.50;99.90
871;DHT22;422;51.280;7.236;2023-10-31T16:27:46;11.40;1.00
871;DHT22;422;51.280;7.236;2023-10-31T16:30:13;11.40;1.00
871;DHT22;422;51.280;7.236;2023-10-31T16:32:42;11.30;52.80
871;DHT22;422;51.280;7.236;2023-10-31T16:35:10;11.30;99.90
871;DHT22;422;51.280;7.236;2023-10-31T16:37:37;11.30;99.90
871;DHT22;422;51.280;7.236;2023-10-31T16:40:06;11.40;99.90
871;DHT22;422;51.280;7.236;2023-10-31T16:42:36;11.40;99.90
871;DHT22;422;51.280;7.236;2023-10-31T16:45:04;11.20;1.00